sensor_id;sensor_type;location;lat;lon;timestamp;P1;durP1;ratioP1;P2;durP2;ratioP2
11131;SDS011;5620;53.570;9.718;2023-04-15T00:00:17;2.80;;;2.60;;
11131;SDS011;5620;53.570;9.718;2023-04-15T00:02:43;2.38;;;2.20;;
11131;SDS011;5620;53.570;9.718;2023-04-15T00:05:11;2.65;;;2.45;;
11131;SDS011;5620;53.570;9.718;2023-04-15T00:07:38;2.60;;;2.40;;
11131;SDS011;5620;53.570;9.718;2023-04-15T00:10:04;2.63;;;2.42;;
11131;SDS011;5620;53.570;9.718;2023-04-15T00:12:32;2.88;;;2.67;;
11131;SDS011;5620;53.570;9.718;2023-04-15T00:14:59;3.30;;;2.10;;
11131;SDS011;5620;53.570;9.718;2023-04-15T00:17:28;2.55;;;2.35;;
11131;SDS011;5620;53.570;9.718;2023-04-15T00:19:54;3.92;;;2.15;;
11131;SDS011;5620;53.570;9.718;2023-04-15T00:22:22;2.92;;;2.50;;
11131;SDS011;5620;53.570;9.718;2023-04-15T00:24:49;2.50;;;2.30;;
11131;SDS011;5620;53.570;9.718;2023-04-15T00:27:16;2.67;;;2.47;;
11131;SDS011;5620;53.570;9.718;2023-04-15T00:29:43;2.60;;;2.37;;
11131;SDS011;5620;53.570;9.718;2023-04-15T00:32:12;2.72;;;2.55;;
11131;SDS011;5620;53.570;9.718;2023-04-15T00:34:42;3.08;;;2.88;;
11131;SDS011;5620;53.570;9.718;2023-04-15T00:37:08;2.67;;;2.47;;
11131;SDS011;5620;53.570;9.718;2023-04-15T00:39:34;5.05;;;2.33;;
11131;SDS011;5620;53.570;9.718;2023-04-15T00:42:05;3.80;;;2.72;;
11131;SDS011;5620;53.570;9.718;2023-04-15T00:44:32;2.75;;;2.55;;
11131;SDS011;5620;53.570;9.718;2023-04-15T00:47:00;3.90;;;3.47;;
11131;SDS011;5620;53.570;9.718;2023-04-15T00:49:30;3.10;;;2.80;;
11131;SDS011;5620;53.570;9.718;2023-04-15T00:51:58;3.55;;;2.78;;
11131;SDS011;5620;53.570;9.718;2023-04-15T00:54:24;3.78;;;3.47;;
11131;SDS011;5620;53.570;9.718;2023-04-15T00:56:51;3.67;;;3.38;;
11131;SDS011;5620;53.570;9.718;2023-04-15T00:59:19;5.93;;;3.80;;
11131;SDS011;5620;53.570;9.718;2023-04-15T01:01:49;4.67;;;3.37;;
11131;SDS011;5620;53.570;9.718;2023-04-15T01:04:21;4.22;;;3.90;;
11131;SDS011;5620;53.570;9.718;2023-04-15T01:06:49;3.67;;;3.30;;
11131;SDS011;5620;53.570;9.718;2023-04-15T01:09:16;3.80;;;3.50;;
11131;SDS011;5620;53.570;9.718;2023-04-15T01:11:43;3.25;;;3.05;;
11131;SDS011;5620;53.570;9.718;2023-04-15T01:14:10;3.97;;;3.67;;
11131;SDS011;5620;53.570;9.718;2023-04-15T01:16:37;3.78;;;2.95;;
11131;SDS011;5620;53.570;9.718;2023-04-15T01:19:07;3.78;;;3.47;;
11131;SDS011;5620;53.570;9.718;2023-04-15T01:21:38;3.23;;;3.03;;
11131;SDS011;5620;53.570;9.718;2023-04-15T01:24:09;5.78;;;3.47;;
11131;SDS011;5620;53.570;9.718;2023-04-15T01:26:37;2.92;;;2.72;;
11131;SDS011;5620;53.570;9.718;2023-04-15T01:29:05;2.97;;;2.78;;
11131;SDS011;5620;53.570;9.718;2023-04-15T01:31:33;3.30;;;3.10;;
11131;SDS011;5620;53.570;9.718;2023-04-15T01:33:59;4.33;;;2.63;;
11131;SDS011;5620;53.570;9.718;2023-04-15T01:36:27;3.97;;;2.83;;
11131;SDS011;5620;53.570;9.718;2023-04-15T01:39:01;4.20;;;3.55;;
11131;SDS011;5620;53.570;9.718;2023-04-15T01:41:28;2.93;;;2.60;;
11131;SDS011;5620;53.570;9.718;2023-04-15T01:43:56;3.10;;;2.90;;
11131;SDS011;5620;53.570;9.718;2023-04-15T01:46:24;2.78;;;2.58;;
11131;SDS011;5620;53.570;9.718;2023-04-15T01:48:51;7.65;;;2.70;;
11131;SDS011;5620;53.570;9.718;2023-04-15T01:51:18;3.08;;;2.83;;
11131;SDS011;5620;53.570;9.718;2023-04-15T01:53:46;2.87;;;2.67;;
11131;SDS011;5620;53.570;9.718;2023-04-15T01:56:13;2.53;;;2.33;;
11131;SDS011;5620;53.570;9.718;2023-04-15T01:58:41;2.80;;;2.60;;
11131;SDS011;5620;53.570;9.718;2023-04-15T02:01:07;3.30;;;3.10;;
11131;SDS011;5620;53.570;9.718;2023-04-15T02:03:36;2.47;;;2.28;;
11131;SDS011;5620;53.570;9.718;2023-04-15T02:06:04;2.73;;;2.53;;
11131;SDS011;5620;53.570;9.718;2023-04-15T02:08:32;2.80;;;2.60;;
11131;SDS011;5620;53.570;9.718;2023-04-15T02:10:59;2.85;;;2.65;;
11131;SDS011;5620;53.570;9.718;2023-04-15T02:13:27;2.78;;;2.25;;
11131;SDS011;5620;53.570;9.718;2023-04-15T02:15:55;2.92;;;2.72;;
11131;SDS011;5620;53.570;9.718;2023-04-15T02:18:22;3.70;;;2.60;;
11131;SDS011;5620;53.570;9.718;2023-04-15T02:20:49;3.10;;;2.90;;
11131;SDS011;5620;53.570;9.718;2023-04-15T02:23:16;5.68;;;2.83;;
11131;SDS011;5620;53.570;9.718;2023-04-15T02:25:44;3.45;;;3.25;;
11131;SDS011;5620;53.570;9.718;2023-04-15T02:28:12;3.00;;;2.78;;
11131;SDS011;5620;53.570;9.718;2023-04-15T02:30:38;2.57;;;2.37;;
11131;SDS011;5620;53.570;9.718;2023-04-15T02:33:05;4.22;;;2.83;;
11131;SDS011;5620;53.570;9.718;2023-04-15T02:35:33;2.50;;;2.30;;
11131;SDS011;5620;53.570;9.718;2023-04-15T02:37:58;3.17;;;2.97;;
11131;SDS011;5620;53.570;9.718;2023-04-15T02:40:25;3.67;;;2.60;;
11131;SDS011;5620;53.570;9.718;2023-04-15T02:42:52;3.05;;;2.80;;
11131;SDS011;5620;53.570;9.718;2023-04-15T02:45:20;2.95;;;2.75;;
11131;SDS011;5620;53.570;9.718;2023-04-15T02:47:47;2.80;;;2.60;;
11131;SDS011;5620;53.570;9.718;2023-04-15T02:50:14;2.70;;;2.50;;
11131;SDS011;5620;53.570;9.718;2023-04-15T02:52:41;3.13;;;2.92;;
11131;SDS011;5620;53.570;9.718;2023-04-15T02:55:08;3.42;;;2.85;;
11131;SDS011;5620;53.570;9.718;2023-04-15T02:57:36;2.70;;;2.50;;
11131;SDS011;5620;53.570;9.718;2023-04-15T03:00:02;3.08;;;2.83;;
11131;SDS011;5620;53.570;9.718;2023-04-15T03:02:35;2.75;;;2.55;;
11131;SDS011;5620;53.570;9.718;2023-04-15T03:05:01;2.47;;;2.28;;
11131;SDS011;5620;53.570;9.718;2023-04-15T03:07:30;4.43;;;3.10;;
11131;SDS011;5620;53.570;9.718;2023-04-15T03:09:57;3.55;;;3.10;;
11131;SDS011;5620;53.570;9.718;2023-04-15T03:12:24;2.75;;;2.55;;
11131;SDS011;5620;53.570;9.718;2023-04-15T03:14:49;4.93;;;2.28;;
11131;SDS011;5620;53.570;9.718;2023-04-15T03:17:16;3.03;;;2.83;;
11131;SDS011;5620;53.570;9.718;2023-04-15T03:19:43;3.40;;;3.20;;
11131;SDS011;5620;53.570;9.718;2023-04-15T03:22:09;2.88;;;2.67;;
11131;SDS011;5620;53.570;9.718;2023-04-15T03:24:37;3.10;;;2.90;;
11131;SDS011;5620;53.570;9.718;2023-04-15T03:27:06;3.17;;;2.97;;
11131;SDS011;5620;53.570;9.718;2023-04-15T03:29:34;3.00;;;2.80;;
11131;SDS011;5620;53.570;9.718;2023-04-15T03:32:01;3.70;;;3.40;;
11131;SDS011;5620;53.570;9.718;2023-04-15T03:34:28;3.30;;;3.10;;
11131;SDS011;5620;53.570;9.718;2023-04-15T03:36:56;3.42;;;3.22;;
11131;SDS011;5620;53.570;9.718;2023-04-15T03:39:21;2.78;;;2.58;;
11131;SDS011;5620;53.570;9.718;2023-04-15T03:41:49;3.17;;;2.90;;
11131;SDS011;5620;53.570;9.718;2023-04-15T03:44:18;3.28;;;3.08;;
11131;SDS011;5620;53.570;9.718;2023-04-15T03:46:48;3.38;;;3.08;;
11131;SDS011;5620;53.570;9.718;2023-04-15T03:49:15;4.07;;;3.78;;
11131;SDS011;5620;53.570;9.718;2023-04-15T03:51:43;4.15;;;3.47;;
11131;SDS011;5620;53.570;9.718;2023-04-15T03:54:09;3.80;;;3.60;;
11131;SDS011;5620;53.570;9.718;2023-04-15T03:56:36;3.30;;;3.00;;
11131;SDS011;5620;53.570;9.718;2023-04-15T03:59:04;3.43;;;3.13;;
11131;SDS011;5620;53.570;9.718;2023-04-15T04:01:29;3.50;;;3.30;;
11131;SDS011;5620;53.570;9.718;2023-04-15T04:03:57;3.50;;;3.30;;
11131;SDS011;5620;53.570;9.718;2023-04-15T04:06:24;4.68;;;3.38;;
11131;SDS011;5620;53.570;9.718;2023-04-15T04:08:50;3.80;;;3.50;;
11131;SDS011;5620;53.570;9.718;2023-04-15T04:11:18;3.77;;;3.47;;
11131;SDS011;5620;53.570;9.718;2023-04-15T04:13:46;3.83;;;3.53;;
11131;SDS011;5620;53.570;9.718;2023-04-15T04:16:14;3.83;;;3.53;;
11131;SDS011;5620;53.570;9.718;2023-04-15T04:18:41;4.07;;;3.83;;
11131;SDS011;5620;53.570;9.718;2023-04-15T04:21:08;3.80;;;3.50;;
11131;SDS011;5620;53.570;9.718;2023-04-15T04:23:35;3.90;;;3.65;;
11131;SDS011;5620;53.570;9.718;2023-04-15T04:26:03;4.32;;;3.92;;
11131;SDS011;5620;53.570;9.718;2023-04-15T04:28:29;4.28;;;3.97;;
11131;SDS011;5620;53.570;9.718;2023-04-15T04:30:56;4.57;;;4.28;;
11131;SDS011;5620;53.570;9.718;2023-04-15T04:33:23;5.22;;;4.38;;
11131;SDS011;5620;53.570;9.718;2023-04-15T04:35:49;4.65;;;4.35;;
11131;SDS011;5620;53.570;9.718;2023-04-15T04:38:16;4.27;;;3.97;;
11131;SDS011;5620;53.570;9.718;2023-04-15T04:40:44;4.70;;;4.40;;
11131;SDS011;5620;53.570;9.718;2023-04-15T04:43:16;4.22;;;3.88;;
11131;SDS011;5620;53.570;9.718;2023-04-15T04:45:47;5.07;;;4.50;;
11131;SDS011;5620;53.570;9.718;2023-04-15T04:48:13;4.90;;;4.50;;
11131;SDS011;5620;53.570;9.718;2023-04-15T04:50:41;5.28;;;4.88;;
11131;SDS011;5620;53.570;9.718;2023-04-15T04:53:11;4.13;;;3.80;;
11131;SDS011;5620;53.570;9.718;2023-04-15T04:55:38;4.78;;;4.32;;
11131;SDS011;5620;53.570;9.718;2023-04-15T04:58:05;5.60;;;5.13;;
11131;SDS011;5620;53.570;9.718;2023-04-15T05:00:30;4.07;;;3.77;;
11131;SDS011;5620;53.570;9.718;2023-04-15T05:02:56;5.35;;;4.93;;
11131;SDS011;5620;53.570;9.718;2023-04-15T05:05:21;5.40;;;5.00;;
11131;SDS011;5620;53.570;9.718;2023-04-15T05:07:48;5.90;;;5.13;;
11131;SDS011;5620;53.570;9.718;2023-04-15T05:10:14;5.38;;;4.90;;
11131;SDS011;5620;53.570;9.718;2023-04-15T05:12:39;7.90;;;6.28;;
11131;SDS011;5620;53.570;9.718;2023-04-15T05:15:05;6.20;;;5.47;;
11131;SDS011;5620;53.570;9.718;2023-04-15T05:17:34;8.43;;;7.07;;
11131;SDS011;5620;53.570;9.718;2023-04-15T05:20:02;8.43;;;5.85;;
11131;SDS011;5620;53.570;9.718;2023-04-15T05:22:28;8.10;;;6.82;;
11131;SDS011;5620;53.570;9.718;2023-04-15T05:24:56;10.20;;;6.88;;
11131;SDS011;5620;53.570;9.718;2023-04-15T05:27:25;6.95;;;6.30;;
11131;SDS011;5620;53.570;9.718;2023-04-15T05:29:52;9.20;;;6.82;;
11131;SDS011;5620;53.570;9.718;2023-04-15T05:32:19;9.48;;;7.28;;
11131;SDS011;5620;53.570;9.718;2023-04-15T05:34:44;51.92;;;23.88;;
11131;SDS011;5620;53.570;9.718;2023-04-15T05:37:11;35.97;;;20.90;;
11131;SDS011;5620;53.570;9.718;2023-04-15T05:39:38;9.68;;;8.23;;
11131;SDS011;5620;53.570;9.718;2023-04-15T05:42:05;14.30;;;10.05;;
11131;SDS011;5620;53.570;9.718;2023-04-15T05:44:32;8.03;;;7.30;;
11131;SDS011;5620;53.570;9.718;2023-04-15T05:46:58;9.57;;;8.10;;
11131;SDS011;5620;53.570;9.718;2023-04-15T05:49:25;11.48;;;7.35;;
11131;SDS011;5620;53.570;9.718;2023-04-15T05:51:52;8.93;;;7.60;;
11131;SDS011;5620;53.570;9.718;2023-04-15T05:54:18;9.65;;;7.45;;
11131;SDS011;5620;53.570;9.718;2023-04-15T05:56:44;23.80;;;15.25;;
11131;SDS011;5620;53.570;9.718;2023-04-15T05:59:10;8.73;;;7.53;;
11131;SDS011;5620;53.570;9.718;2023-04-15T06:01:37;10.77;;;8.55;;
11131;SDS011;5620;53.570;9.718;2023-04-15T06:04:02;9.33;;;7.53;;
11131;SDS011;5620;53.570;9.718;2023-04-15T06:06:29;10.10;;;7.53;;
11131;SDS011;5620;53.570;9.718;2023-04-15T06:08:57;8.63;;;6.82;;
11131;SDS011;5620;53.570;9.718;2023-04-15T06:11:24;8.50;;;7.45;;
11131;SDS011;5620;53.570;9.718;2023-04-15T06:13:51;10.43;;;8.10;;
11131;SDS011;5620;53.570;9.718;2023-04-15T06:16:18;14.52;;;10.48;;
11131;SDS011;5620;53.570;9.718;2023-04-15T06:18:46;13.40;;;9.60;;
11131;SDS011;5620;53.570;9.718;2023-04-15T06:21:13;10.13;;;8.23;;
11131;SDS011;5620;53.570;9.718;2023-04-15T06:23:40;10.10;;;8.23;;
11131;SDS011;5620;53.570;9.718;2023-04-15T06:26:07;10.25;;;7.68;;
11131;SDS011;5620;53.570;9.718;2023-04-15T06:28:34;8.98;;;7.75;;
11131;SDS011;5620;53.570;9.718;2023-04-15T06:31:01;16.37;;;12.10;;
11131;SDS011;5620;53.570;9.718;2023-04-15T06:33:30;12.82;;;10.30;;
11131;SDS011;5620;53.570;9.718;2023-04-15T06:35:56;11.63;;;9.90;;
11131;SDS011;5620;53.570;9.718;2023-04-15T06:38:22;8.10;;;7.30;;
11131;SDS011;5620;53.570;9.718;2023-04-15T06:40:49;13.43;;;8.75;;
11131;SDS011;5620;53.570;9.718;2023-04-15T06:43:15;11.57;;;9.77;;
11131;SDS011;5620;53.570;9.718;2023-04-15T06:45:43;10.65;;;8.90;;
11131;SDS011;5620;53.570;9.718;2023-04-15T06:48:08;14.73;;;9.65;;
11131;SDS011;5620;53.570;9.718;2023-04-15T06:50:34;11.45;;;9.43;;
11131;SDS011;5620;53.570;9.718;2023-04-15T06:53:00;16.30;;;10.47;;
11131;SDS011;5620;53.570;9.718;2023-04-15T06:55:26;14.55;;;10.73;;
11131;SDS011;5620;53.570;9.718;2023-04-15T06:57:54;17.67;;;11.00;;
11131;SDS011;5620;53.570;9.718;2023-04-15T07:00:21;13.45;;;10.73;;
11131;SDS011;5620;53.570;9.718;2023-04-15T07:02:48;14.43;;;10.15;;
11131;SDS011;5620;53.570;9.718;2023-04-15T07:05:16;15.65;;;11.38;;
11131;SDS011;5620;53.570;9.718;2023-04-15T07:07:44;14.88;;;11.07;;
11131;SDS011;5620;53.570;9.718;2023-04-15T07:10:11;14.63;;;10.43;;
11131;SDS011;5620;53.570;9.718;2023-04-15T07:12:38;13.48;;;11.45;;
11131;SDS011;5620;53.570;9.718;2023-04-15T07:15:09;12.65;;;9.65;;
11131;SDS011;5620;53.570;9.718;2023-04-15T07:17:37;12.88;;;10.10;;
11131;SDS011;5620;53.570;9.718;2023-04-15T07:20:09;12.93;;;10.10;;
11131;SDS011;5620;53.570;9.718;2023-04-15T07:22:37;9.03;;;7.23;;
11131;SDS011;5620;53.570;9.718;2023-04-15T07:25:04;14.80;;;10.25;;
11131;SDS011;5620;53.570;9.718;2023-04-15T07:27:32;18.35;;;11.68;;
11131;SDS011;5620;53.570;9.718;2023-04-15T07:29:58;12.27;;;10.23;;
11131;SDS011;5620;53.570;9.718;2023-04-15T07:32:26;17.40;;;11.45;;
11131;SDS011;5620;53.570;9.718;2023-04-15T07:34:54;21.10;;;11.98;;
11131;SDS011;5620;53.570;9.718;2023-04-15T07:37:20;18.85;;;12.23;;
11131;SDS011;5620;53.570;9.718;2023-04-15T07:39:50;19.58;;;12.45;;
11131;SDS011;5620;53.570;9.718;2023-04-15T07:42:17;26.03;;;15.87;;
11131;SDS011;5620;53.570;9.718;2023-04-15T07:44:44;21.08;;;12.40;;
11131;SDS011;5620;53.570;9.718;2023-04-15T07:47:10;22.42;;;12.70;;
11131;SDS011;5620;53.570;9.718;2023-04-15T07:49:38;17.93;;;11.60;;
11131;SDS011;5620;53.570;9.718;2023-04-15T07:52:26;21.80;;;12.02;;
11131;SDS011;5620;53.570;9.718;2023-04-15T07:54:54;15.82;;;10.77;;
11131;SDS011;5620;53.570;9.718;2023-04-15T07:57:19;18.98;;;13.23;;
11131;SDS011;5620;53.570;9.718;2023-04-15T07:59:45;18.87;;;12.80;;
11131;SDS011;5620;53.570;9.718;2023-04-15T08:02:10;24.97;;;13.83;;
11131;SDS011;5620;53.570;9.718;2023-04-15T08:04:37;18.75;;;13.45;;
11131;SDS011;5620;53.570;9.718;2023-04-15T08:07:03;21.02;;;13.73;;
11131;SDS011;5620;53.570;9.718;2023-04-15T08:09:30;20.20;;;13.97;;
11131;SDS011;5620;53.570;9.718;2023-04-15T08:11:57;20.35;;;13.93;;
11131;SDS011;5620;53.570;9.718;2023-04-15T08:14:23;20.80;;;13.43;;
11131;SDS011;5620;53.570;9.718;2023-04-15T08:16:49;21.30;;;14.63;;
11131;SDS011;5620;53.570;9.718;2023-04-15T08:19:18;21.65;;;14.32;;
11131;SDS011;5620;53.570;9.718;2023-04-15T08:21:44;20.30;;;14.17;;
11131;SDS011;5620;53.570;9.718;2023-04-15T08:24:11;23.58;;;14.25;;
11131;SDS011;5620;53.570;9.718;2023-04-15T08:26:40;31.77;;;16.92;;
11131;SDS011;5620;53.570;9.718;2023-04-15T08:29:08;22.15;;;15.40;;
11131;SDS011;5620;53.570;9.718;2023-04-15T08:31:35;27.00;;;15.90;;
11131;SDS011;5620;53.570;9.718;2023-04-15T08:34:02;25.37;;;15.87;;
11131;SDS011;5620;53.570;9.718;2023-04-15T08:36:28;28.25;;;16.17;;
11131;SDS011;5620;53.570;9.718;2023-04-15T08:38:56;25.10;;;16.25;;
11131;SDS011;5620;53.570;9.718;2023-04-15T08:41:24;20.60;;;14.27;;
11131;SDS011;5620;53.570;9.718;2023-04-15T08:44:01;23.83;;;15.73;;
11131;SDS011;5620;53.570;9.718;2023-04-15T08:46:31;21.40;;;15.20;;
11131;SDS011;5620;53.570;9.718;2023-04-15T08:48:57;28.10;;;17.25;;
11131;SDS011;5620;53.570;9.718;2023-04-15T08:51:23;29.00;;;16.30;;
11131;SDS011;5620;53.570;9.718;2023-04-15T08:53:49;25.33;;;16.40;;
11131;SDS011;5620;53.570;9.718;2023-04-15T08:56:17;27.45;;;16.70;;
11131;SDS011;5620;53.570;9.718;2023-04-15T08:58:49;30.45;;;16.67;;
11131;SDS011;5620;53.570;9.718;2023-04-15T09:01:17;24.13;;;17.13;;
11131;SDS011;5620;53.570;9.718;2023-04-15T09:03:47;22.07;;;15.00;;
11131;SDS011;5620;53.570;9.718;2023-04-15T09:06:15;25.27;;;15.98;;
11131;SDS011;5620;53.570;9.718;2023-04-15T09:08:43;27.77;;;16.75;;
11131;SDS011;5620;53.570;9.718;2023-04-15T09:11:12;25.02;;;15.95;;
11131;SDS011;5620;53.570;9.718;2023-04-15T09:13:42;26.00;;;16.95;;
11131;SDS011;5620;53.570;9.718;2023-04-15T09:16:10;31.10;;;16.97;;
11131;SDS011;5620;53.570;9.718;2023-04-15T09:18:37;28.08;;;17.10;;
11131;SDS011;5620;53.570;9.718;2023-04-15T09:21:09;28.80;;;15.88;;
11131;SDS011;5620;53.570;9.718;2023-04-15T09:23:38;25.20;;;15.90;;
11131;SDS011;5620;53.570;9.718;2023-04-15T09:26:34;22.40;;;16.65;;
11131;SDS011;5620;53.570;9.718;2023-04-15T09:29:03;53.90;;;31.43;;
11131;SDS011;5620;53.570;9.718;2023-04-15T09:31:34;30.30;;;18.52;;
11131;SDS011;5620;53.570;9.718;2023-04-15T09:34:01;27.67;;;17.40;;
11131;SDS011;5620;53.570;9.718;2023-04-15T09:36:28;28.27;;;16.67;;
11131;SDS011;5620;53.570;9.718;2023-04-15T09:39:05;28.73;;;17.15;;
11131;SDS011;5620;53.570;9.718;2023-04-15T09:41:32;28.57;;;16.33;;
11131;SDS011;5620;53.570;9.718;2023-04-15T09:43:59;22.73;;;16.73;;
11131;SDS011;5620;53.570;9.718;2023-04-15T09:49:11;28.60;;;16.08;;
11131;SDS011;5620;53.570;9.718;2023-04-15T09:51:38;28.23;;;18.10;;
11131;SDS011;5620;53.570;9.718;2023-04-15T09:54:06;25.02;;;16.35;;
11131;SDS011;5620;53.570;9.718;2023-04-15T09:56:37;25.50;;;16.80;;
11131;SDS011;5620;53.570;9.718;2023-04-15T09:59:05;25.27;;;17.60;;
11131;SDS011;5620;53.570;9.718;2023-04-15T10:01:32;28.95;;;17.73;;
11131;SDS011;5620;53.570;9.718;2023-04-15T10:04:01;28.92;;;17.92;;
11131;SDS011;5620;53.570;9.718;2023-04-15T10:06:29;30.45;;;17.63;;
11131;SDS011;5620;53.570;9.718;2023-04-15T10:08:58;29.42;;;16.70;;
11131;SDS011;5620;53.570;9.718;2023-04-15T10:11:30;25.83;;;16.77;;
11131;SDS011;5620;53.570;9.718;2023-04-15T10:14:01;27.25;;;17.10;;
11131;SDS011;5620;53.570;9.718;2023-04-15T10:16:30;31.58;;;19.65;;
11131;SDS011;5620;53.570;9.718;2023-04-15T10:19:00;25.38;;;17.15;;
11131;SDS011;5620;53.570;9.718;2023-04-15T10:21:29;26.15;;;17.77;;
11131;SDS011;5620;53.570;9.718;2023-04-15T10:23:57;26.90;;;16.98;;
11131;SDS011;5620;53.570;9.718;2023-04-15T10:26:24;24.03;;;15.40;;
11131;SDS011;5620;53.570;9.718;2023-04-15T10:28:53;24.20;;;16.45;;
11131;SDS011;5620;53.570;9.718;2023-04-15T10:31:20;26.85;;;16.48;;
11131;SDS011;5620;53.570;9.718;2023-04-15T10:33:46;26.88;;;17.30;;
11131;SDS011;5620;53.570;9.718;2023-04-15T10:36:16;23.23;;;16.45;;
11131;SDS011;5620;53.570;9.718;2023-04-15T10:38:45;26.77;;;15.63;;
11131;SDS011;5620;53.570;9.718;2023-04-15T10:46:41;26.65;;;16.33;;
11131;SDS011;5620;53.570;9.718;2023-04-15T10:49:11;21.55;;;15.27;;
11131;SDS011;5620;53.570;9.718;2023-04-15T10:51:45;25.63;;;15.40;;
11131;SDS011;5620;53.570;9.718;2023-04-15T10:57:16;23.25;;;15.18;;
11131;SDS011;5620;53.570;9.718;2023-04-15T11:00:01;21.80;;;14.73;;
11131;SDS011;5620;53.570;9.718;2023-04-15T11:02:44;24.73;;;18.23;;
11131;SDS011;5620;53.570;9.718;2023-04-15T11:05:15;20.37;;;14.50;;
11131;SDS011;5620;53.570;9.718;2023-04-15T11:13:01;21.52;;;13.48;;
11131;SDS011;5620;53.570;9.718;2023-04-15T11:15:49;14.43;;;12.85;;
11131;SDS011;5620;53.570;9.718;2023-04-15T11:18:22;17.03;;;13.23;;
11131;SDS011;5620;53.570;9.718;2023-04-15T11:20:49;16.58;;;11.57;;
11131;SDS011;5620;53.570;9.718;2023-04-15T11:23:30;19.70;;;11.43;;
11131;SDS011;5620;53.570;9.718;2023-04-15T11:26:00;16.83;;;11.40;;
11131;SDS011;5620;53.570;9.718;2023-04-15T11:28:31;14.93;;;11.13;;
11131;SDS011;5620;53.570;9.718;2023-04-15T11:31:04;19.80;;;12.57;;
11131;SDS011;5620;53.570;9.718;2023-04-15T11:33:38;14.57;;;11.23;;
11131;SDS011;5620;53.570;9.718;2023-04-15T11:36:29;10.10;;;9.18;;
11131;SDS011;5620;53.570;9.718;2023-04-15T11:38:56;12.17;;;9.23;;
11131;SDS011;5620;53.570;9.718;2023-04-15T11:41:25;17.20;;;10.40;;
11131;SDS011;5620;53.570;9.718;2023-04-15T11:43:53;10.73;;;9.63;;
11131;SDS011;5620;53.570;9.718;2023-04-15T11:46:27;11.48;;;9.48;;
11131;SDS011;5620;53.570;9.718;2023-04-15T11:48:53;12.15;;;10.38;;
11131;SDS011;5620;53.570;9.718;2023-04-15T11:51:21;11.47;;;10.20;;
11131;SDS011;5620;53.570;9.718;2023-04-15T11:53:49;10.80;;;9.80;;
11131;SDS011;5620;53.570;9.718;2023-04-15T11:56:16;10.65;;;9.52;;
11131;SDS011;5620;53.570;9.718;2023-04-15T11:58:47;14.45;;;9.95;;
11131;SDS011;5620;53.570;9.718;2023-04-15T12:01:17;12.00;;;9.85;;
11131;SDS011;5620;53.570;9.718;2023-04-15T12:03:47;9.30;;;8.33;;
11131;SDS011;5620;53.570;9.718;2023-04-15T12:06:20;8.90;;;8.10;;
11131;SDS011;5620;53.570;9.718;2023-04-15T12:11:45;9.95;;;6.63;;
11131;SDS011;5620;53.570;9.718;2023-04-15T12:14:31;5.63;;;5.20;;
11131;SDS011;5620;53.570;9.718;2023-04-15T12:17:02;5.00;;;4.60;;
11131;SDS011;5620;53.570;9.718;2023-04-15T12:22:21;5.35;;;4.90;;
11131;SDS011;5620;53.570;9.718;2023-04-15T12:24:46;7.90;;;5.23;;
11131;SDS011;5620;53.570;9.718;2023-04-15T12:27:24;6.22;;;5.72;;
11131;SDS011;5620;53.570;9.718;2023-04-15T12:30:02;5.45;;;5.03;;
11131;SDS011;5620;53.570;9.718;2023-04-15T12:32:34;4.78;;;4.43;;
11131;SDS011;5620;53.570;9.718;2023-04-15T12:35:04;7.07;;;5.40;;
11131;SDS011;5620;53.570;9.718;2023-04-15T12:37:32;11.20;;;9.00;;
11131;SDS011;5620;53.570;9.718;2023-04-15T12:39:59;14.40;;;9.77;;
11131;SDS011;5620;53.570;9.718;2023-04-15T12:42:26;4.53;;;4.10;;
11131;SDS011;5620;53.570;9.718;2023-04-15T12:44:52;5.03;;;4.60;;
11131;SDS011;5620;53.570;9.718;2023-04-15T12:47:18;4.93;;;4.43;;
11131;SDS011;5620;53.570;9.718;2023-04-15T12:49:44;6.53;;;4.27;;
11131;SDS011;5620;53.570;9.718;2023-04-15T12:52:11;8.95;;;4.70;;
11131;SDS011;5620;53.570;9.718;2023-04-15T12:54:41;5.55;;;5.05;;
11131;SDS011;5620;53.570;9.718;2023-04-15T12:57:10;3.78;;;3.45;;
11131;SDS011;5620;53.570;9.718;2023-04-15T12:59:35;4.95;;;4.18;;
11131;SDS011;5620;53.570;9.718;2023-04-15T13:02:07;4.47;;;4.17;;
11131;SDS011;5620;53.570;9.718;2023-04-15T13:04:32;6.47;;;5.97;;
11131;SDS011;5620;53.570;9.718;2023-04-15T13:07:01;5.45;;;5.05;;
11131;SDS011;5620;53.570;9.718;2023-04-15T13:09:31;5.97;;;5.30;;
11131;SDS011;5620;53.570;9.718;2023-04-15T13:11:57;9.15;;;5.10;;
11131;SDS011;5620;53.570;9.718;2023-04-15T13:14:26;5.13;;;4.70;;
11131;SDS011;5620;53.570;9.718;2023-04-15T13:16:51;49.60;;;32.90;;
11131;SDS011;5620;53.570;9.718;2023-04-15T13:19:18;10.73;;;7.37;;
11131;SDS011;5620;53.570;9.718;2023-04-15T13:21:45;5.20;;;4.80;;
11131;SDS011;5620;53.570;9.718;2023-04-15T13:24:11;6.50;;;5.18;;
11131;SDS011;5620;53.570;9.718;2023-04-15T13:26:39;5.90;;;5.32;;
11131;SDS011;5620;53.570;9.718;2023-04-15T13:29:06;5.55;;;5.05;;
11131;SDS011;5620;53.570;9.718;2023-04-15T13:31:33;5.88;;;5.38;;
11131;SDS011;5620;53.570;9.718;2023-04-15T13:34:00;7.27;;;5.37;;
11131;SDS011;5620;53.570;9.718;2023-04-15T13:36:28;11.25;;;5.25;;
11131;SDS011;5620;53.570;9.718;2023-04-15T13:38:55;6.28;;;5.25;;
11131;SDS011;5620;53.570;9.718;2023-04-15T13:41:22;5.72;;;5.22;;
11131;SDS011;5620;53.570;9.718;2023-04-15T13:43:50;8.10;;;5.55;;
11131;SDS011;5620;53.570;9.718;2023-04-15T13:46:17;5.67;;;5.27;;
11131;SDS011;5620;53.570;9.718;2023-04-15T13:48:44;5.70;;;5.28;;
11131;SDS011;5620;53.570;9.718;2023-04-15T13:51:12;9.23;;;5.45;;
11131;SDS011;5620;53.570;9.718;2023-04-15T13:53:38;5.45;;;4.90;;
11131;SDS011;5620;53.570;9.718;2023-04-15T13:56:04;5.53;;;5.03;;
11131;SDS011;5620;53.570;9.718;2023-04-15T13:58:35;4.95;;;4.55;;
11131;SDS011;5620;53.570;9.718;2023-04-15T14:01:03;6.13;;;4.68;;
11131;SDS011;5620;53.570;9.718;2023-04-15T14:03:33;8.20;;;4.67;;
11131;SDS011;5620;53.570;9.718;2023-04-15T14:06:01;5.38;;;4.93;;
11131;SDS011;5620;53.570;9.718;2023-04-15T14:08:27;6.80;;;5.07;;
11131;SDS011;5620;53.570;9.718;2023-04-15T14:10:54;4.78;;;4.43;;
11131;SDS011;5620;53.570;9.718;2023-04-15T14:13:19;4.40;;;4.00;;
11131;SDS011;5620;53.570;9.718;2023-04-15T14:15:45;4.90;;;4.43;;
11131;SDS011;5620;53.570;9.718;2023-04-15T14:18:12;4.75;;;3.85;;
11131;SDS011;5620;53.570;9.718;2023-04-15T14:20:39;4.53;;;4.05;;
11131;SDS011;5620;53.570;9.718;2023-04-15T14:23:06;4.55;;;3.63;;
11131;SDS011;5620;53.570;9.718;2023-04-15T14:25:32;4.97;;;3.75;;
11131;SDS011;5620;53.570;9.718;2023-04-15T14:28:00;4.53;;;4.23;;
11131;SDS011;5620;53.570;9.718;2023-04-15T14:30:29;5.60;;;3.55;;
11131;SDS011;5620;53.570;9.718;2023-04-15T14:32:58;4.78;;;4.07;;
11131;SDS011;5620;53.570;9.718;2023-04-15T14:35:26;3.80;;;3.55;;
11131;SDS011;5620;53.570;9.718;2023-04-15T14:37:53;7.60;;;4.32;;
11131;SDS011;5620;53.570;9.718;2023-04-15T14:40:20;5.53;;;5.13;;
11131;SDS011;5620;53.570;9.718;2023-04-15T14:42:47;5.20;;;4.80;;
11131;SDS011;5620;53.570;9.718;2023-04-15T14:45:17;5.40;;;4.57;;
11131;SDS011;5620;53.570;9.718;2023-04-15T14:47:45;7.55;;;6.90;;
11131;SDS011;5620;53.570;9.718;2023-04-15T14:50:12;4.88;;;4.47;;
11131;SDS011;5620;53.570;9.718;2023-04-15T14:52:40;5.47;;;4.23;;
11131;SDS011;5620;53.570;9.718;2023-04-15T14:55:09;4.32;;;3.92;;
11131;SDS011;5620;53.570;9.718;2023-04-15T14:57:38;4.25;;;3.95;;
11131;SDS011;5620;53.570;9.718;2023-04-15T15:00:05;5.88;;;4.05;;
11131;SDS011;5620;53.570;9.718;2023-04-15T15:02:36;4.15;;;3.85;;
11131;SDS011;5620;53.570;9.718;2023-04-15T15:05:03;5.53;;;3.70;;
11131;SDS011;5620;53.570;9.718;2023-04-15T15:07:29;4.28;;;3.90;;
11131;SDS011;5620;53.570;9.718;2023-04-15T15:09:58;5.00;;;4.53;;
11131;SDS011;5620;53.570;9.718;2023-04-15T15:12:28;5.28;;;4.78;;
11131;SDS011;5620;53.570;9.718;2023-04-15T15:14:55;5.07;;;4.60;;
11131;SDS011;5620;53.570;9.718;2023-04-15T15:17:21;4.57;;;4.17;;